sensor_id;sensor_type;location;lat;lon;timestamp;temperature;humidity
46766;DHT22;32527;51.986;5.842;2022-10-30T00:00:48;14.50;99.90
46766;DHT22;32527;51.986;5.842;2022-10-30T00:03:15;14.30;99.90
46766;DHT22;32527;51.986;5.842;2022-10-30T00:05:47;14.60;99.90
46766;DHT22;32527;51.986;5.842;2022-10-30T00:08:15;14.10;99.90
46766;DHT22;32527;51.986;5.842;2022-10-30T00:10:41;14.40;99.90
46766;DHT22;32527;51.986;5.842;2022-10-30T00:13:07;14.20;99.90
46766;DHT22;32527;51.986;5.842;2022-10-30T00:15:33;14.10;99.90
46766;DHT22;32527;51.986;5.842;2022-10-30T00:17:59;14.20;99.90
46766;DHT22;32527;51.986;5.842;2022-10-30T00:20:24;14.00;99.90
46766;DHT22;32527;51.986;5.842;2022-10-30T00:22:50;14.30;99.90
46766;DHT22;32527;51.986;5.842;2022-10-30T00:25:15;14.10;99.90
46766;DHT22;32527;51.986;5.842;2022-10-30T00:27:41;13.90;99.90
46766;DHT22;32527;51.986;5.842;2022-10-30T00:30:07;14.10;99.90
46766;DHT22;32527;51.986;5.842;2022-10-30T00:32:34;13.90;99.90
46766;DHT22;32527;51.986;5.842;2022-10-30T00:34:59;14.40;99.90
46766;DHT22;32527;51.986;5.842;2022-10-30T00:39:51;13.90;99.90
46766;DHT22;32527;51.986;5.842;2022-10-30T00:42:17;13.90;99.90
46766;DHT22;32527;51.986;5.842;2022-10-30T00:44:50;13.90;99.90
46766;DHT22;32527;51.986;5.842;2022-10-30T00:50:16;14.00;99.90
46766;DHT22;32527;51.986;5.842;2022-10-30T00:52:55;13.90;99.90
46766;DHT22;32527;51.986;5.842;2022-10-30T00:55:26;14.10;99.90
46766;DHT22;32527;51.986;5.842;2022-10-30T00:57:55;13.50;99.90
46766;DHT22;32527;51.986;5.842;2022-10-30T01:00:23;14.10;99.90
46766;DHT22;32527;51.986;5.842;2022-10-30T01:02:51;14.00;99.90
46766;DHT22;32527;51.986;5.842;2022-10-30T01:05:19;14.00;99.90
46766;DHT22;32527;51.986;5.842;2022-10-30T01:07:46;13.80;99.90
46766;DHT22;32527;51.986;5.842;2022-10-30T01:10:12;13.40;99.90
46766;DHT22;32527;51.986;5.842;2022-10-30T01:12:39;13.70;99.90
46766;DHT22;32527;51.986;5.842;2022-10-30T01:15:06;13.90;99.90
46766;DHT22;32527;51.986;5.842;2022-10-30T01:17:55;14.00;99.90
46766;DHT22;32527;51.986;5.842;2022-10-30T01:23:47;14.00;99.90
46766;DHT22;32527;51.986;5.842;2022-10-30T01:31:58;13.60;99.90
46766;DHT22;32527;51.986;5.842;2022-10-30T01:37:15;13.20;99.90
46766;DHT22;32527;51.986;5.842;2022-10-30T01:39:43;13.70;99.90
46766;DHT22;32527;51.986;5.842;2022-10-30T01:42:10;13.20;99.90
46766;DHT22;32527;51.986;5.842;2022-10-30T01:44:55;13.60;99.90
46766;DHT22;32527;51.986;5.842;2022-10-30T01:50:50;13.40;99.90
46766;DHT22;32527;51.986;5.842;2022-10-30T01:56:17;13.50;99.90
46766;DHT22;32527;51.986;5.842;2022-10-30T01:59:22;13.50;99.90
46766;DHT22;32527;51.986;5.842;2022-10-30T02:01:49;13.00;99.90
46766;DHT22;32527;51.986;5.842;2022-10-30T02:04:15;13.60;99.90
46766;DHT22;32527;51.986;5.842;2022-10-30T02:06:41;12.80;99.90
46766;DHT22;32527;51.986;5.842;2022-10-30T02:09:08;13.30;99.90
46766;DHT22;32527;51.986;5.842;2022-10-30T02:11:36;13.20;99.90
46766;DHT22;32527;51.986;5.842;2022-10-30T02:14:05;13.40;99.90
46766;DHT22;32527;51.986;5.842;2022-10-30T02:16:34;13.10;99.90
46766;DHT22;32527;51.986;5.842;2022-10-30T02:19:00;12.80;99.90
46766;DHT22;32527;51.986;5.842;2022-10-30T02:21:27;12.70;99.90
46766;DHT22;32527;51.986;5.842;2022-10-30T02:23:52;13.00;99.90
46766;DHT22;32527;51.986;5.842;2022-10-30T02:26:19;13.10;99.90
46766;DHT22;32527;51.986;5.842;2022-10-30T02:28:45;12.90;99.90
46766;DHT22;32527;51.986;5.842;2022-10-30T02:31:10;13.00;99.90
46766;DHT22;32527;51.986;5.842;2022-10-30T02:33:44;13.40;99.90
46766;DHT22;32527;51.986;5.842;2022-10-30T02:36:10;12.80;99.90
46766;DHT22;32527;51.986;5.842;2022-10-30T02:38:36;12.80;99.90
46766;DHT22;32527;51.986;5.842;2022-10-30T02:41:02;13.00;99.90
46766;DHT22;32527;51.986;5.842;2022-10-30T02:43:28;13.40;99.90
46766;DHT22;32527;51.986;5.842;2022-10-30T02:45:53;12.90;99.90
46766;DHT22;32527;51.986;5.842;2022-10-30T02:48:20;13.30;99.90
46766;DHT22;32527;51.986;5.842;2022-10-30T02:50:46;13.10;99.90
46766;DHT22;32527;51.986;5.842;2022-10-30T02:53:12;13.40;99.90
46766;DHT22;32527;51.986;5.842;2022-10-30T02:55:38;13.10;99.90
46766;DHT22;32527;51.986;5.842;2022-10-30T02:58:04;12.80;99.90
46766;DHT22;32527;51.986;5.842;2022-10-30T03:00:30;13.40;99.90
46766;DHT22;32527;51.986;5.842;2022-10-30T03:02:56;12.90;99.90
46766;DHT22;32527;51.986;5.842;2022-10-30T03:05:22;13.30;99.90
46766;DHT22;32527;51.986;5.842;2022-10-30T03:07:48;12.70;99.90
46766;DHT22;32527;51.986;5.842;2022-10-30T03:10:14;12.70;99.90
46766;DHT22;32527;51.986;5.842;2022-10-30T03:12:39;13.10;99.90
46766;DHT22;32527;51.986;5.842;2022-10-30T03:15:07;13.10;99.90
46766;DHT22;32527;51.986;5.842;2022-10-30T03:17:34;12.70;99.90
46766;DHT22;32527;51.986;5.842;2022-10-30T03:22:26;12.90;99.90
46766;DHT22;32527;51.986;5.842;2022-10-30T03:24:52;12.60;99.90
46766;DHT22;32527;51.986;5.842;2022-10-30T03:27:18;12.60;99.90
46766;DHT22;32527;51.986;5.842;2022-10-30T03:29:44;12.70;99.90
46766;DHT22;32527;51.986;5.842;2022-10-30T03:32:11;13.20;99.90
46766;DHT22;32527;51.986;5.842;2022-10-30T03:34:44;12.60;99.90
46766;DHT22;32527;51.986;5.842;2022-10-30T03:37:09;12.60;99.90
46766;DHT22;32527;51.986;5.842;2022-10-30T03:39:35;12.40;99.90
46766;DHT22;32527;51.986;5.842;2022-10-30T03:42:01;12.60;99.90
46766;DHT22;32527;51.986;5.842;2022-10-30T03:44:27;13.00;99.90
46766;DHT22;32527;51.986;5.842;2022-10-30T03:46:54;12.50;99.90
46766;DHT22;32527;51.986;5.842;2022-10-30T03:49:25;12.50;99.90
46766;DHT22;32527;51.986;5.842;2022-10-30T03:51:52;12.40;99.90
46766;DHT22;32527;51.986;5.842;2022-10-30T03:54:18;12.50;99.90
46766;DHT22;32527;51.986;5.842;2022-10-30T03:59:14;12.60;99.90
46766;DHT22;32527;51.986;5.842;2022-10-30T04:01:42;12.50;99.90
46766;DHT22;32527;51.986;5.842;2022-10-30T04:04:07;12.40;99.90
46766;DHT22;32527;51.986;5.842;2022-10-30T04:06:33;12.80;99.90
46766;DHT22;32527;51.986;5.842;2022-10-30T04:09:00;12.50;99.90
46766;DHT22;32527;51.986;5.842;2022-10-30T04:11:32;13.10;99.90
46766;DHT22;32527;51.986;5.842;2022-10-30T04:13:57;12.70;99.90
46766;DHT22;32527;51.986;5.842;2022-10-30T04:16:23;12.50;99.90
46766;DHT22;32527;51.986;5.842;2022-10-30T04:18:49;12.70;99.90
46766;DHT22;32527;51.986;5.842;2022-10-30T04:21:15;13.00;99.90
46766;DHT22;32527;51.986;5.842;2022-10-30T04:23:41;10.20;99.90
46766;DHT22;32527;51.986;5.842;2022-10-30T04:26:08;12.80;99.90
46766;DHT22;32527;51.986;5.842;2022-10-30T04:28:37;12.40;99.90
46766;DHT22;32527;51.986;5.842;2022-10-30T04:31:03;12.70;99.90
46766;DHT22;32527;51.986;5.842;2022-10-30T04:35:57;12.50;99.90
46766;DHT22;32527;51.986;5.842;2022-10-30T04:38:23;12.40;99.90
46766;DHT22;32527;51.986;5.842;2022-10-30T04:40:49;12.30;99.90
46766;DHT22;32527;51.986;5.842;2022-10-30T04:43:16;12.50;99.90
46766;DHT22;32527;51.986;5.842;2022-10-30T04:48:15;12.50;99.90
46766;DHT22;32527;51.986;5.842;2022-10-30T04:53:16;12.30;99.90
46766;DHT22;32527;51.986;5.842;2022-10-30T04:55:45;12.70;99.90
46766;DHT22;32527;51.986;5.842;2022-10-30T04:58:12;12.50;99.90
46766;DHT22;32527;51.986;5.842;2022-10-30T05:00:39;12.50;99.90
46766;DHT22;32527;51.986;5.842;2022-10-30T05:03:19;12.80;99.90
46766;DHT22;32527;51.986;5.842;2022-10-30T05:05:46;12.60;99.90
46766;DHT22;32527;51.986;5.842;2022-10-30T05:08:12;12.50;99.90
46766;DHT22;32527;51.986;5.842;2022-10-30T05:10:39;12.30;99.90
46766;DHT22;32527;51.986;5.842;2022-10-30T05:17:57;12.40;99.90
46766;DHT22;32527;51.986;5.842;2022-10-30T05:20:23;11.90;99.90
46766;DHT22;32527;51.986;5.842;2022-10-30T05:22:56;12.00;99.90
46766;DHT22;32527;51.986;5.842;2022-10-30T05:25:23;12.20;99.90
46766;DHT22;32527;51.986;5.842;2022-10-30T05:27:49;12.20;99.90
46766;DHT22;32527;51.986;5.842;2022-10-30T05:32:43;12.20;99.90
46766;DHT22;32527;51.986;5.842;2022-10-30T05:42:29;12.30;99.90
46766;DHT22;32527;51.986;5.842;2022-10-30T05:44:57;12.20;99.90
46766;DHT22;32527;51.986;5.842;2022-10-30T05:47:23;11.90;99.90
46766;DHT22;32527;51.986;5.842;2022-10-30T05:54:48;11.70;99.90
46766;DHT22;32527;51.986;5.842;2022-10-30T05:57:27;12.10;99.90
46766;DHT22;32527;51.986;5.842;2022-10-30T05:59:53;11.70;99.90
46766;DHT22;32527;51.986;5.842;2022-10-30T06:02:19;11.70;99.90
46766;DHT22;32527;51.986;5.842;2022-10-30T06:04:45;12.00;99.90
46766;DHT22;32527;51.986;5.842;2022-10-30T06:07:13;11.60;99.90
46766;DHT22;32527;51.986;5.842;2022-10-30T06:09:39;11.70;99.90
46766;DHT22;32527;51.986;5.842;2022-10-30T06:12:27;11.80;99.90
46766;DHT22;32527;51.986;5.842;2022-10-30T06:15:02;12.10;99.90
46766;DHT22;32527;51.986;5.842;2022-10-30T06:17:29;11.80;99.90
46766;DHT22;32527;51.986;5.842;2022-10-30T06:20:27;10.30;99.90
46766;DHT22;32527;51.986;5.842;2022-10-30T06:23:09;11.70;99.90
46766;DHT22;32527;51.986;5.842;2022-10-30T06:25:42;12.30;99.90
46766;DHT22;32527;51.986;5.842;2022-10-30T06:30:40;12.10;99.90
46766;DHT22;32527;51.986;5.842;2022-10-30T06:33:06;11.90;99.90
46766;DHT22;32527;51.986;5.842;2022-10-30T06:35:33;12.30;99.90
46766;DHT22;32527;51.986;5.842;2022-10-30T06:37:59;11.60;99.90
46766;DHT22;32527;51.986;5.842;2022-10-30T06:40:27;12.10;99.90
46766;DHT22;32527;51.986;5.842;2022-10-30T06:43:12;12.10;99.90
46766;DHT22;32527;51.986;5.842;2022-10-30T06:45:42;11.80;99.90
46766;DHT22;32527;51.986;5.842;2022-10-30T06:48:08;12.10;99.90
46766;DHT22;32527;51.986;5.842;2022-10-30T06:50:41;12.10;99.90
46766;DHT22;32527;51.986;5.842;2022-10-30T06:55:33;12.00;99.90
46766;DHT22;32527;51.986;5.842;2022-10-30T06:58:25;11.50;99.90
46766;DHT22;32527;51.986;5.842;2022-10-30T07:00:58;11.90;99.90
46766;DHT22;32527;51.986;5.842;2022-10-30T07:03:55;12.30;99.90
46766;DHT22;32527;51.986;5.842;2022-10-30T07:06:21;12.00;99.90
46766;DHT22;32527;51.986;5.842;2022-10-30T07:08:47;12.10;99.90
46766;DHT22;32527;51.986;5.842;2022-10-30T07:13:45;11.70;99.90
46766;DHT22;32527;51.986;5.842;2022-10-30T07:16:29;12.20;99.90
46766;DHT22;32527;51.986;5.842;2022-10-30T07:18:54;12.10;99.90
46766;DHT22;32527;51.986;5.842;2022-10-30T07:21:21;12.10;99.90
46766;DHT22;32527;51.986;5.842;2022-10-30T07:23:47;11.90;99.90
46766;DHT22;32527;51.986;5.842;2022-10-30T07:28:54;12.00;99.90
46766;DHT22;32527;51.986;5.842;2022-10-30T07:31:40;12.00;99.90
46766;DHT22;32527;51.986;5.842;2022-10-30T07:34:29;12.20;99.90
46766;DHT22;32527;51.986;5.842;2022-10-30T07:39:53;12.00;99.90
46766;DHT22;32527;51.986;5.842;2022-10-30T07:42:22;12.50;99.90
46766;DHT22;32527;51.986;5.842;2022-10-30T07:45:23;12.90;99.90
46766;DHT22;32527;51.986;5.842;2022-10-30T07:48:15;12.90;99.90
46766;DHT22;32527;51.986;5.842;2022-10-30T07:50:48;12.50;99.90
46766;DHT22;32527;51.986;5.842;2022-10-30T07:53:14;13.10;99.90
46766;DHT22;32527;51.986;5.842;2022-10-30T07:55:41;12.60;99.90
46766;DHT22;32527;51.986;5.842;2022-10-30T07:58:26;12.90;99.90
46766;DHT22;32527;51.986;5.842;2022-10-30T08:01:10;13.30;99.90
46766;DHT22;32527;51.986;5.842;2022-10-30T08:03:36;12.90;99.90
46766;DHT22;32527;51.986;5.842;2022-10-30T08:06:10;13.20;99.90
46766;DHT22;32527;51.986;5.842;2022-10-30T08:11:15;12.90;99.90
46766;DHT22;32527;51.986;5.842;2022-10-30T08:13:40;12.90;99.90
46766;DHT22;32527;51.986;5.842;2022-10-30T08:16:06;13.20;99.90
46766;DHT22;32527;51.986;5.842;2022-10-30T08:18:32;13.20;99.90
46766;DHT22;32527;51.986;5.842;2022-10-30T08:20:58;13.40;99.90
46766;DHT22;32527;51.986;5.842;2022-10-30T08:23:23;13.30;99.90
46766;DHT22;32527;51.986;5.842;2022-10-30T08:25:49;13.40;99.90
46766;DHT22;32527;51.986;5.842;2022-10-30T08:28:15;14.20;99.90
46766;DHT22;32527;51.986;5.842;2022-10-30T08:30:42;14.20;99.90
46766;DHT22;32527;51.986;5.842;2022-10-30T08:33:12;14.40;99.90
46766;DHT22;32527;51.986;5.842;2022-10-30T08:35:57;14.10;99.90
46766;DHT22;32527;51.986;5.842;2022-10-30T08:38:25;14.10;99.90
46766;DHT22;32527;51.986;5.842;2022-10-30T08:41:09;14.40;99.90
46766;DHT22;32527;51.986;5.842;2022-10-30T08:43:42;14.50;99.90
46766;DHT22;32527;51.986;5.842;2022-10-30T08:46:08;14.10;99.90
46766;DHT22;32527;51.986;5.842;2022-10-30T08:48:34;13.90;99.90
46766;DHT22;32527;51.986;5.842;2022-10-30T08:50:59;14.40;99.90
46766;DHT22;32527;51.986;5.842;2022-10-30T08:53:31;15.00;99.90
46766;DHT22;32527;51.986;5.842;2022-10-30T08:55:57;14.70;99.90
46766;DHT22;32527;51.986;5.842;2022-10-30T08:58:29;15.20;99.90
46766;DHT22;32527;51.986;5.842;2022-10-30T09:06:08;15.40;99.90
46766;DHT22;32527;51.986;5.842;2022-10-30T09:08:52;15.10;99.90
46766;DHT22;32527;51.986;5.842;2022-10-30T09:11:31;15.20;99.90
46766;DHT22;32527;51.986;5.842;2022-10-30T09:13:57;15.40;99.90
46766;DHT22;32527;51.986;5.842;2022-10-30T09:16:23;15.00;99.90
46766;DHT22;32527;51.986;5.842;2022-10-30T09:21:16;15.10;99.90
46766;DHT22;32527;51.986;5.842;2022-10-30T09:23:44;15.60;99.90
46766;DHT22;32527;51.986;5.842;2022-10-30T09:26:28;15.80;99.90
46766;DHT22;32527;51.986;5.842;2022-10-30T09:29:00;16.10;99.90
46766;DHT22;32527;51.986;5.842;2022-10-30T09:31:44;15.70;99.90
46766;DHT22;32527;51.986;5.842;2022-10-30T09:34:14;15.50;99.90
46766;DHT22;32527;51.986;5.842;2022-10-30T09:39:11;15.80;99.90
46766;DHT22;32527;51.986;5.842;2022-10-30T09:50:29;16.20;99.90
46766;DHT22;32527;51.986;5.842;2022-10-30T09:53:06;16.20;99.90
46766;DHT22;32527;51.986;5.842;2022-10-30T09:58:32;16.30;99.90
46766;DHT22;32527;51.986;5.842;2022-10-30T10:01:26;17.00;99.90
46766;DHT22;32527;51.986;5.842;2022-10-30T10:04:20;17.00;99.90
46766;DHT22;32527;51.986;5.842;2022-10-30T10:07:19;17.10;99.90
46766;DHT22;32527;51.986;5.842;2022-10-30T10:09:57;17.30;99.90
46766;DHT22;32527;51.986;5.842;2022-10-30T10:12:42;16.60;99.90
46766;DHT22;32527;51.986;5.842;2022-10-30T10:15:22;16.70;99.90
46766;DHT22;32527;51.986;5.842;2022-10-30T10:17:52;17.40;99.90
46766;DHT22;32527;51.986;5.842;2022-10-30T10:20:35;16.80;99.90
46766;DHT22;32527;51.986;5.842;2022-10-30T10:23:25;17.10;99.90
46766;DHT22;32527;51.986;5.842;2022-10-30T10:25:57;17.20;99.90
46766;DHT22;32527;51.986;5.842;2022-10-30T10:28:51;17.50;99.90
46766;DHT22;32527;51.986;5.842;2022-10-30T10:37:30;17.40;99.90
46766;DHT22;32527;51.986;5.842;2022-10-30T10:40:09;17.10;99.90
46766;DHT22;32527;51.986;5.842;2022-10-30T10:45:42;17.50;99.90
46766;DHT22;32527;51.986;5.842;2022-10-30T10:48:38;17.70;99.90
46766;DHT22;32527;51.986;5.842;2022-10-30T10:51:12;17.50;99.90
46766;DHT22;32527;51.986;5.842;2022-10-30T10:53:51;17.70;99.90
46766;DHT22;32527;51.986;5.842;2022-10-30T10:56:23;17.50;99.90
46766;DHT22;32527;51.986;5.842;2022-10-30T10:58:55;17.50;99.90
46766;DHT22;32527;51.986;5.842;2022-10-30T11:01:29;17.50;99.90
46766;DHT22;32527;51.986;5.842;2022-10-30T11:04:02;17.50;99.90
46766;DHT22;32527;51.986;5.842;2022-10-30T11:06:33;17.70;99.90
46766;DHT22;32527;51.986;5.842;2022-10-30T11:11:36;17.70;99.90
46766;DHT22;32527;51.986;5.842;2022-10-30T11:14:13;17.90;99.90
46766;DHT22;32527;51.986;5.842;2022-10-30T11:17:18;18.10;99.90
46766;DHT22;32527;51.986;5.842;2022-10-30T11:19:46;18.10;99.90
46766;DHT22;32527;51.986;5.842;2022-10-30T11:22:21;18.20;99.90
46766;DHT22;32527;51.986;5.842;2022-10-30T11:24:49;18.30;99.90
46766;DHT22;32527;51.986;5.842;2022-10-30T11:30:04;18.50;99.90
46766;DHT22;32527;51.986;5.842;2022-10-30T11:32:32;19.00;99.90
46766;DHT22;32527;51.986;5.842;2022-10-30T11:35:11;18.60;99.90
46766;DHT22;32527;51.986;5.842;2022-10-30T11:37:39;18.90;99.90
46766;DHT22;32527;51.986;5.842;2022-10-30T11:40:21;19.40;99.90
46766;DHT22;32527;51.986;5.842;2022-10-30T11:42:58;20.60;99.90
46766;DHT22;32527;51.986;5.842;2022-10-30T11:45:26;20.60;99.90
46766;DHT22;32527;51.986;5.842;2022-10-30T11:47:54;20.60;99.90
46766;DHT22;32527;51.986;5.842;2022-10-30T11:50:29;20.90;99.90
46766;DHT22;32527;51.986;5.842;2022-10-30T11:52:59;21.60;99.90
46766;DHT22;32527;51.986;5.842;2022-10-30T11:55:31;21.80;99.90
46766;DHT22;32527;51.986;5.842;2022-10-30T11:57:58;21.40;99.90
46766;DHT22;32527;51.986;5.842;2022-10-30T12:00:29;21.00;99.90
46766;DHT22;32527;51.986;5.842;2022-10-30T12:02:57;20.70;99.90
46766;DHT22;32527;51.986;5.842;2022-10-30T12:07:52;20.00;99.90
46766;DHT22;32527;51.986;5.842;2022-10-30T12:10:26;19.70;99.90
46766;DHT22;32527;51.986;5.842;2022-10-30T12:12:52;19.60;99.90
46766;DHT22;32527;51.986;5.842;2022-10-30T12:15:25;19.50;99.90
46766;DHT22;32527;51.986;5.842;2022-10-30T12:17:59;19.30;99.90
46766;DHT22;32527;51.986;5.842;2022-10-30T12:20:26;19.20;99.90
46766;DHT22;32527;51.986;5.842;2022-10-30T12:22:53;19.20;99.90
46766;DHT22;32527;51.986;5.842;2022-10-30T12:25:29;19.20;99.90
46766;DHT22;32527;51.986;5.842;2022-10-30T12:30:25;19.30;99.90
46766;DHT22;32527;51.986;5.842;2022-10-30T12:33:15;19.30;99.90
46766;DHT22;32527;51.986;5.842;2022-10-30T12:35:47;19.40;99.90
46766;DHT22;32527;51.986;5.842;2022-10-30T12:46:45;19.50;99.90
46766;DHT22;32527;51.986;5.842;2022-10-30T12:49:21;19.40;99.90
46766;DHT22;32527;51.986;5.842;2022-10-30T12:54:38;19.10;99.90
46766;DHT22;32527;51.986;5.842;2022-10-30T12:57:19;19.20;99.90
46766;DHT22;32527;51.986;5.842;2022-10-30T13:08:19;19.10;99.90
46766;DHT22;32527;51.986;5.842;2022-10-30T13:13:27;18.60;99.90
46766;DHT22;32527;51.986;5.842;2022-10-30T13:15:55;19.10;99.90
46766;DHT22;32527;51.986;5.842;2022-10-30T13:18:24;19.10;99.90
46766;DHT22;32527;51.986;5.842;2022-10-30T13:23:49;19.10;99.90
46766;DHT22;32527;51.986;5.842;2022-10-30T13:26:29;19.10;99.90
46766;DHT22;32527;51.986;5.842;2022-10-30T13:44:58;19.60;99.90
46766;DHT22;32527;51.986;5.842;2022-10-30T13:47:49;19.70;99.90
46766;DHT22;32527;51.986;5.842;2022-10-30T13:53:25;19.50;99.90
46766;DHT22;32527;51.986;5.842;2022-10-30T13:55:54;19.70;99.90
46766;DHT22;32527;51.986;5.842;2022-10-30T13:59:01;19.60;99.90
46766;DHT22;32527;51.986;5.842;2022-10-30T14:01:49;19.50;99.90
46766;DHT22;32527;51.986;5.842;2022-10-30T14:04:23;19.10;99.90
46766;DHT22;32527;51.986;5.842;2022-10-30T14:07:13;19.20;99.90
46766;DHT22;32527;51.986;5.842;2022-10-30T14:10:01;19.10;99.90
46766;DHT22;32527;51.986;5.842;2022-10-30T14:23:19;18.40;99.90
46766;DHT22;32527;51.986;5.842;2022-10-30T14:28:41;18.50;99.90
46766;DHT22;32527;51.986;5.842;2022-10-30T14:31:18;17.80;99.90
46766;DHT22;32527;51.986;5.842;2022-10-30T14:33:52;18.10;99.90
46766;DHT22;32527;51.986;5.842;2022-10-30T14:36:24;18.00;99.90
46766;DHT22;32527;51.986;5.842;2022-10-30T14:39:20;18.00;99.90
46766;DHT22;32527;51.986;5.842;2022-10-30T14:44:35;18.00;99.90
46766;DHT22;32527;51.986;5.842;2022-10-30T14:53:18;18.00;99.90
46766;DHT22;32527;51.986;5.842;2022-10-30T14:56:00;18.00;99.90
46766;DHT22;32527;51.986;5.842;2022-10-30T14:58:33;18.00;99.90
46766;DHT22;32527;51.986;5.842;2022-10-30T15:12:34;18.00;99.90
46766;DHT22;32527;51.986;5.842;2022-10-30T15:15:11;18.00;99.90
46766;DHT22;32527;51.986;5.842;2022-10-30T15:17:47;17.90;99.90
46766;DHT22;32527;51.986;5.842;2022-10-30T15:20:25;17.90;99.90
46766;DHT22;32527;51.986;5.842;2022-10-30T15:23:02;17.80;99.90
46766;DHT22;32527;51.986;5.842;2022-10-30T15:25:37;17.70;99.90
46766;DHT22;32527;51.986;5.842;2022-10-30T15:28:14;17.40;99.90
46766;DHT22;32527;51.986;5.842;2022-10-30T15:30:57;17.50;99.90
46766;DHT22;32527;51.986;5.842;2022-10-30T15:33:23;17.50;99.90
46766;DHT22;32527;51.986;5.842;2022-10-30T15:35:49;17.40;99.90
46766;DHT22;32527;51.986;5.842;2022-10-30T15:38:14;17.30;99.90
46766;DHT22;32527;51.986;5.842;2022-10-30T15:40:40;17.20;99.90
46766;DHT22;32527;51.986;5.842;2022-10-30T15:43:10;17.10;99.90
46766;DHT22;32527;51.986;5.842;2022-10-30T15:45:41;17.30;99.90
46766;DHT22;32527;51.986;5.842;2022-10-30T15:51:05;16.90;99.90
46766;DHT22;32527;51.986;5.842;2022-10-30T15:53:50;16.90;99.90
46766;DHT22;32527;51.986;5.842;2022-10-30T15:56:22;16.90;99.90
46766;DHT22;32527;51.986;5.842;2022-10-30T15:58:52;16.60;99.90
46766;DHT22;32527;51.986;5.842;2022-10-30T16:01:36;16.50;99.90
46766;DHT22;32527;51.986;5.842;2022-10-30T16:04:18;16.20;99.90
46766;DHT22;32527;51.986;5.842;2022-10-30T16:09:18;16.30;99.90
46766;DHT22;32527;51.986;5.842;2022-10-30T16:11:44;16.20;99.90
46766;DHT22;32527;51.986;5.842;2022-10-30T16:14:17;16.20;99.90
46766;DHT22;32527;51.986;5.842;2022-10-30T16:16:45;16.30;99.90
46766;DHT22;32527;51.986;5.842;2022-10-30T16:19:24;16.10;99.90
46766;DHT22;32527;51.986;5.842;2022-10-30T16:21:52;16.50;99.90
46766;DHT22;32527;51.986;5.842;2022-10-30T16:24:28;16.90;99.90
46766;DHT22;32527;51.986;5.842;2022-10-30T16:27:18;16.00;99.90
46766;DHT22;32527;51.986;5.842;2022-10-30T16:29:47;16.10;99.90
46766;DHT22;32527;51.986;5.842;2022-10-30T16:32:15;16.10;99.90
46766;DHT22;32527;51.986;5.842;2022-10-30T16:34:42;16.20;99.90
46766;DHT22;32527;51.986;5.842;2022-10-30T16:37:21;16.00;99.90
46766;DHT22;32527;51.986;5.842;2022-10-30T16:39:49;16.50;99.90
46766;DHT22;32527;51.986;5.842;2022-10-30T16:42:23;16.20;99.90
46766;DHT22;32527;51.986;5.842;2022-10-30T16:44:49;16.40;99.90
46766;DHT22;32527;51.986;5.842;2022-10-30T16:49:48;16.10;99.90
46766;DHT22;32527;51.986;5.842;2022-10-30T16:52:15;16.00;99.90
46766;DHT22;32527;51.986;5.842;2022-10-30T16:54:58;16.80;99.90
46766;DHT22;32527;51.986;5.842;2022-10-30T16:57:45;16.10;99.90
46766;DHT22;32527;51.986;5.842;2022-10-30T17:00:24;16.10;99.90
46766;DHT22;32527;51.986;5.842;2022-10-30T17:02:51;16.30;99.90
46766;DHT22;32527;51.986;5.842;2022-10-30T17:05:29;16.20;99.90
46766;DHT22;32527;51.986;5.842;2022-10-30T17:07:57;16.10;99.90
46766;DHT22;32527;51.986;5.842;2022-10-30T17:10:42;16.10;99.90
46766;DHT22;32527;51.986;5.842;2022-10-30T17:13:55;16.20;99.90
46766;DHT22;32527;51.986;5.842;2022-10-30T17:16:29;16.10;99.90
46766;DHT22;32527;51.986;5.842;2022-10-30T17:18:58;15.90;99.90
46766;DHT22;32527;51.986;5.842;2022-10-30T17:21:38;16.60;99.90
46766;DHT22;32527;51.986;5.842;2022-10-30T17:24:14;15.90;99.90
46766;DHT22;32527;51.986;5.842;2022-10-30T17:26:58;16.20;99.90
46766;DHT22;32527;51.986;5.842;2022-10-30T17:32:03;16.50;99.90
46766;DHT22;32527;51.986;5.842;2022-10-30T17:34:30;16.30;99.90
46766;DHT22;32527;51.986;5.842;2022-10-30T17:37:01;15.90;99.90
46766;DHT22;32527;51.986;5.842;2022-10-30T17:39:26;16.40;99.90
46766;DHT22;32527;51.986;5.842;2022-10-30T17:41:55;15.90;99.90
46766;DHT22;32527;51.986;5.842;2022-10-30T17:44:22;16.00;99.90
46766;DHT22;32527;51.986;5.842;2022-10-30T17:46:49;15.70;99.90
46766;DHT22;32527;51.986;5.842;2022-10-30T17:49:30;16.00;99.90
46766;DHT22;32527;51.986;5.842;2022-10-30T17:51:57;15.90;99.90
46766;DHT22;32527;51.986;5.842;2022-10-30T17:54:23;16.10;99.90
46766;DHT22;32527;51.986;5.842;2022-10-30T17:56:49;15.90;99.90
46766;DHT22;32527;51.986;5.842;2022-10-30T17:59:15;16.10;99.90
46766;DHT22;32527;51.986;5.842;2022-10-30T18:01:41;15.70;99.90
46766;DHT22;32527;51.986;5.842;2022-10-30T18:04:15;15.50;99.90
46766;DHT22;32527;51.986;5.842;2022-10-30T18:06:41;15.60;99.90
46766;DHT22;32527;51.986;5.842;2022-10-30T18:09:07;15.70;99.90
46766;DHT22;32527;51.986;5.842;2022-10-30T18:11:33;15.80;99.90
46766;DHT22;32527;51.986;5.842;2022-10-30T18:13:59;15.80;99.90
46766;DHT22;32527;51.986;5.842;2022-10-30T18:16:25;15.80;99.90
46766;DHT22;32527;51.986;5.842;2022-10-30T18:18:51;15.90;99.90
46766;DHT22;32527;51.986;5.842;2022-10-30T18:21:20;15.60;99.90
46766;DHT22;32527;51.986;5.842;2022-10-30T18:23:46;15.30;99.90
46766;DHT22;32527;51.986;5.842;2022-10-30T18:26:15;15.20;99.90
46766;DHT22;32527;51.986;5.842;2022-10-30T18:28:41;15.20;99.90
46766;DHT22;32527;51.986;5.842;2022-10-30T18:31:09;15.30;99.90
46766;DHT22;32527;51.986;5.842;2022-10-30T18:33:36;15.20;99.90
46766;DHT22;32527;51.986;5.842;2022-10-30T18:36:01;15.10;99.90
46766;DHT22;32527;51.986;5.842;2022-10-30T18:38:27;15.70;99.90
46766;DHT22;32527;51.986;5.842;2022-10-30T18:40:53;14.90;99.90
46766;DHT22;32527;51.986;5.842;2022-10-30T18:43:18;15.50;99.90
46766;DHT22;32527;51.986;5.842;2022-10-30T18:45:44;15.00;99.90
46766;DHT22;32527;51.986;5.842;2022-10-30T18:50:37;15.10;99.90
46766;DHT22;32527;51.986;5.842;2022-10-30T18:53:03;15.30;99.90
46766;DHT22;32527;51.986;5.842;2022-10-30T18:55:36;14.80;99.90
46766;DHT22;32527;51.986;5.842;2022-10-30T18:58:03;15.30;99.90
46766;DHT22;32527;51.986;5.842;2022-10-30T19:00:29;15.40;99.90
46766;DHT22;32527;51.986;5.842;2022-10-30T19:02:56;14.90;99.90
46766;DHT22;32527;51.986;5.842;2022-10-30T19:12:44;14.90;99.90
46766;DHT22;32527;51.986;5.842;2022-10-30T19:15:23;15.00;99.90
46766;DHT22;32527;51.986;5.842;2022-10-30T19:17:49;15.10;99.90
46766;DHT22;32527;51.986;5.842;2022-10-30T19:20:15;14.60;99.90
46766;DHT22;32527;51.986;5.842;2022-10-30T19:22:40;14.70;99.90
46766;DHT22;32527;51.986;5.842;2022-10-30T19:25:14;14.70;99.90
46766;DHT22;32527;51.986;5.842;2022-10-30T19:27:40;15.30;99.90